createdAt,value
2022-10-07T00:01:06.031Z,7.20
2022-10-07T00:03:34.337Z,7.20
2022-10-07T00:06:18.366Z,7.10
2022-10-07T00:08:51.442Z,7.00
2022-10-07T00:11:25.698Z,7.00
2022-10-07T00:13:57.123Z,7.00
2022-10-07T00:16:28.358Z,7.00
2022-10-07T00:18:57.825Z,6.90
2022-10-07T00:21:28.453Z,6.80
2022-10-07T00:23:56.623Z,6.90
2022-10-07T00:26:28.656Z,6.80
2022-10-07T00:31:30.475Z,6.70
2022-10-07T00:33:58.892Z,6.70
2022-10-07T00:36:32.665Z,6.70
2022-10-07T00:39:03.691Z,6.70
2022-10-07T00:41:52.250Z,6.70
2022-10-07T00:44:31.310Z,6.70
2022-10-07T00:47:08.862Z,6.70
2022-10-07T00:50:28.900Z,6.70
2022-10-07T00:53:01.085Z,6.70
2022-10-07T00:55:32.160Z,6.60
2022-10-07T00:58:04.736Z,6.60
2022-10-07T01:00:31.924Z,6.50
2022-10-07T01:02:59.187Z,6.50
2022-10-07T01:05:27.089Z,6.40
2022-10-07T01:07:58.937Z,6.40
2022-10-07T01:10:45.261Z,6.40
2022-10-07T01:13:23.723Z,6.40
2022-10-07T01:16:13.140Z,6.40
2022-10-07T01:18:53.848Z,6.30
2022-10-07T01:21:54.216Z,6.30
2022-10-07T01:24:58.583Z,6.20
2022-10-07T01:27:28.995Z,6.20
2022-10-07T01:30:08.772Z,6.20
2022-10-07T01:33:02.709Z,6.30
2022-10-07T01:35:35.990Z,6.20
2022-10-07T01:45:43.744Z,6.00
2022-10-07T01:48:10.974Z,6.00
2022-10-07T01:50:39.743Z,6.00
2022-10-07T01:53:54.862Z,6.00
2022-10-07T01:56:48.721Z,6.10
2022-10-07T01:59:53.484Z,5.90
2022-10-07T02:02:45.286Z,5.90
2022-10-07T02:05:36.083Z,5.90
2022-10-07T02:08:35.525Z,5.80
2022-10-07T02:11:27.383Z,5.70
2022-10-07T02:14:10.300Z,5.80
2022-10-07T02:16:56.606Z,5.80
2022-10-07T02:19:31.310Z,5.80
2022-10-07T02:22:00.588Z,5.80
2022-10-07T02:24:33.306Z,5.80
2022-10-07T02:27:07.947Z,5.70
2022-10-07T02:29:39.149Z,5.60
2022-10-07T02:32:20.544Z,5.70
2022-10-07T02:34:55.740Z,5.70
2022-10-07T02:37:30.915Z,5.60
2022-10-07T02:39:58.798Z,5.70
2022-10-07T02:42:29.364Z,5.80
2022-10-07T02:45:17.192Z,5.80
2022-10-07T02:47:52.609Z,5.80
2022-10-07T02:50:27.450Z,5.90
2022-10-07T02:52:57.343Z,5.80
2022-10-07T02:55:28.846Z,5.80
2022-10-07T02:58:04.098Z,5.70
2022-10-07T03:00:35.615Z,5.70
2022-10-07T03:03:04.958Z,5.70
2022-10-07T03:05:35.483Z,5.70
2022-10-07T03:08:10.767Z,5.60
2022-10-07T03:10:38.805Z,5.50
2022-10-07T03:13:06.186Z,5.50
2022-10-07T03:15:38.505Z,5.50
2022-10-07T03:18:08.916Z,5.50
2022-10-07T03:20:36.268Z,5.40
2022-10-07T03:23:03.456Z,5.30
2022-10-07T03:25:30.625Z,5.30
2022-10-07T03:27:57.813Z,5.30
2022-10-07T03:30:25.025Z,5.30
2022-10-07T03:32:52.168Z,5.30
2022-10-07T03:35:19.429Z,5.30
2022-10-07T03:37:47.005Z,5.30
2022-10-07T03:40:14.560Z,5.30
2022-10-07T03:45:09.857Z,5.10
2022-10-07T03:47:36.963Z,5.10
2022-10-07T03:50:04.652Z,5.10
2022-10-07T03:52:31.763Z,5.10
2022-10-07T03:54:59.012Z,5.10
2022-10-07T03:57:26.219Z,5.10
2022-10-07T03:59:53.428Z,5.10
2022-10-07T04:02:22.266Z,5.20
2022-10-07T04:04:49.792Z,5.10
2022-10-07T04:07:17.147Z,5.00
2022-10-07T04:09:44.337Z,6.30
2022-10-07T04:12:11.461Z,5.00
2022-10-07T04:14:38.697Z,5.00
2022-10-07T04:17:05.827Z,5.00
2022-10-07T04:19:33.035Z,5.00
2022-10-07T04:22:02.907Z,5.00
2022-10-07T04:24:32.303Z,5.00
2022-10-07T04:26:59.461Z,5.00
2022-10-07T04:29:26.597Z,5.00
2022-10-07T04:31:53.830Z,5.00
2022-10-07T04:34:21.102Z,4.90
2022-10-07T04:39:15.944Z,4.80
2022-10-07T04:41:43.096Z,4.80
2022-10-07T04:44:10.725Z,4.80
2022-10-07T04:46:38.263Z,4.70
2022-10-07T04:49:05.571Z,4.70
2022-10-07T04:51:32.745Z,4.60
2022-10-07T04:53:59.926Z,4.80
2022-10-07T04:56:27.096Z,4.70
2022-10-07T04:58:54.392Z,4.70
2022-10-07T05:01:21.927Z,4.70
2022-10-07T05:03:49.280Z,4.70
2022-10-07T05:06:16.483Z,4.70
2022-10-07T05:08:45.128Z,4.70
2022-10-07T05:11:12.296Z,4.80
2022-10-07T05:13:40.035Z,4.60
2022-10-07T05:16:07.610Z,4.50
2022-10-07T05:18:35.595Z,4.50
2022-10-07T05:21:09.299Z,4.60
2022-10-07T05:23:36.505Z,4.60
2022-10-07T05:26:06.860Z,4.70
2022-10-07T05:28:34.416Z,4.80
2022-10-07T05:31:12.014Z,4.70
2022-10-07T05:33:40.130Z,4.60
2022-10-07T05:36:09.562Z,4.50
2022-10-07T05:38:36.963Z,4.60
2022-10-07T05:41:09.727Z,4.70
2022-10-07T05:43:40.799Z,4.60
2022-10-07T05:46:15.461Z,4.70
2022-10-07T05:48:49.182Z,4.60
2022-10-07T05:51:16.513Z,4.60
2022-10-07T05:53:43.831Z,4.60
2022-10-07T05:56:18.518Z,4.60
2022-10-07T05:58:46.130Z,4.60
2022-10-07T06:01:19.237Z,4.50
2022-10-07T06:03:53.421Z,4.60
2022-10-07T06:06:21.375Z,4.60
2022-10-07T06:08:49.971Z,4.70
2022-10-07T06:11:19.721Z,4.60
2022-10-07T06:13:54.054Z,4.60
2022-10-07T06:16:23.080Z,4.60
2022-10-07T06:18:51.896Z,4.60
2022-10-07T06:21:21.820Z,4.60
2022-10-07T06:23:52.990Z,4.70
2022-10-07T06:26:22.201Z,4.90
2022-10-07T06:28:50.633Z,5.10
2022-10-07T06:31:20.726Z,5.30
2022-10-07T06:33:48.861Z,5.30
2022-10-07T06:36:16.498Z,5.40
2022-10-07T06:38:53.503Z,5.50
2022-10-07T06:41:23.074Z,5.20
2022-10-07T06:43:55.157Z,5.60
2022-10-07T06:46:22.396Z,5.70
2022-10-07T06:48:49.658Z,5.90
2022-10-07T06:51:21.530Z,6.10
2022-10-07T06:53:54.638Z,6.20
2022-10-07T06:56:21.976Z,6.20
2022-10-07T06:58:49.309Z,6.50
2022-10-07T07:01:16.682Z,6.60
2022-10-07T07:03:44.010Z,6.70
2022-10-07T07:06:11.726Z,6.70
2022-10-07T07:08:39.305Z,6.90
2022-10-07T07:11:13.494Z,7.00
2022-10-07T07:13:43.829Z,7.10
2022-10-07T07:16:13.248Z,7.20
2022-10-07T07:18:40.454Z,7.20
2022-10-07T07:21:07.847Z,7.30
2022-10-07T07:23:35.229Z,7.00
2022-10-07T07:26:02.480Z,8.20
2022-10-07T07:28:29.719Z,7.50
2022-10-07T07:30:56.885Z,7.60
2022-10-07T07:33:24.162Z,7.60
2022-10-07T07:35:51.330Z,7.70
2022-10-07T07:38:22.205Z,7.80
2022-10-07T07:40:52.203Z,8.10
2022-10-07T07:43:19.425Z,7.90
2022-10-07T07:45:46.615Z,7.90
2022-10-07T07:48:13.861Z,8.10
2022-10-07T07:50:41.152Z,8.20
2022-10-07T07:53:08.319Z,8.20
2022-10-07T07:55:35.588Z,8.30
2022-10-07T07:58:02.807Z,8.40
2022-10-07T08:00:29.981Z,8.50
2022-10-07T08:25:07.904Z,9.40
2022-10-07T08:27:35.029Z,9.40
2022-10-07T08:30:02.345Z,9.30
2022-10-07T08:32:29.577Z,9.40
2022-10-07T08:34:56.724Z,9.50
2022-10-07T08:37:23.878Z,9.50
2022-10-07T08:39:51.177Z,8.40
2022-10-07T08:42:34.818Z,9.70
2022-10-07T08:45:02.377Z,9.70
2022-10-07T08:47:47.488Z,9.70
2022-10-07T08:53:19.408Z,10.00
2022-10-07T08:55:55.284Z,9.90
2022-10-07T08:58:52.235Z,10.10
2022-10-07T10:40:40.186Z,13.60
2022-10-07T10:43:25.756Z,13.70
2022-10-07T10:46:23.034Z,13.70
2022-10-07T10:49:58.527Z,13.60
2022-10-07T10:52:45.128Z,14.20
2022-10-07T10:55:56.796Z,15.40
2022-10-07T10:58:41.605Z,17.10
2022-10-07T11:01:17.746Z,18.70
2022-10-07T11:04:20.154Z,19.80
2022-10-07T11:07:15.138Z,20.70
2022-10-07T11:10:17.892Z,21.50
2022-10-07T11:12:53.448Z,22.20
2022-10-07T11:18:31.345Z,23.30
2022-10-07T11:21:02.722Z,23.70
2022-10-07T11:26:50.696Z,24.60
2022-10-07T11:32:30.509Z,25.30
2022-10-07T11:35:34.291Z,25.10
2022-10-07T11:38:10.377Z,25.40
2022-10-07T11:40:43.451Z,25.60
2022-10-07T11:43:42.708Z,25.70
2022-10-07T11:49:44.779Z,25.60
2022-10-07T11:52:27.255Z,25.40
2022-10-07T11:55:08.131Z,25.10
2022-10-07T11:57:39.578Z,25.10
2022-10-07T12:00:29.548Z,25.00
2022-10-07T12:03:19.585Z,24.80
2022-10-07T12:05:50.256Z,24.70
2022-10-07T12:08:30.523Z,24.60
2022-10-07T12:11:20.574Z,24.50
2022-10-07T12:16:23.959Z,24.60
2022-10-07T12:19:06.473Z,24.30
2022-10-07T12:22:01.722Z,24.00
2022-10-07T12:24:32.527Z,24.10
2022-10-07T12:27:24.662Z,23.80
2022-10-07T12:29:59.691Z,23.80
2022-10-07T12:32:51.198Z,23.90
2022-10-07T12:35:30.692Z,23.60
2022-10-07T12:38:26.160Z,23.50
2022-10-07T12:41:12.054Z,23.50
2022-10-07T12:44:17.806Z,23.20
2022-10-07T12:46:50.784Z,23.40
2022-10-07T12:49:50.180Z,23.40
2022-10-07T12:52:39.805Z,23.20
2022-10-07T12:55:36.431Z,23.20
2022-10-07T12:58:28.503Z,23.10
2022-10-07T13:01:55.290Z,23.00
2022-10-07T13:04:50.014Z,23.10
2022-10-07T13:08:09.252Z,23.00
2022-10-07T13:10:55.395Z,22.80
2022-10-07T13:13:26.153Z,22.90
2022-10-07T13:16:13.184Z,22.70
2022-10-07T13:18:53.081Z,22.80
2022-10-07T13:21:36.449Z,22.70
2022-10-07T13:24:04.574Z,22.70
2022-10-07T13:26:32.444Z,22.60
2022-10-07T13:29:01.419Z,22.50
2022-10-07T13:31:32.282Z,22.40
2022-10-07T13:34:14.159Z,22.30
2022-10-07T13:36:44.131Z,22.30
2022-10-07T13:39:22.088Z,22.30
2022-10-07T13:41:54.240Z,22.30
2022-10-07T13:44:26.053Z,22.20
2022-10-07T13:46:59.338Z,22.20
2022-10-07T13:49:35.071Z,22.10
2022-10-07T13:52:06.989Z,22.10
2022-10-07T13:54:34.571Z,21.90
2022-10-07T13:57:07.742Z,21.80
2022-10-07T13:59:37.675Z,21.90
2022-10-07T14:02:10.358Z,22.10
2022-10-07T14:05:00.299Z,22.00
2022-10-07T14:07:28.989Z,21.80
2022-10-07T14:09:59.223Z,21.80
2022-10-07T14:12:36.881Z,21.60
2022-10-07T14:15:16.900Z,21.70
2022-10-07T14:17:48.873Z,21.50
2022-10-07T14:20:32.800Z,21.40
2022-10-07T14:23:06.794Z,21.40
2022-10-07T14:25:54.250Z,21.30
2022-10-07T14:28:24.615Z,21.20
2022-10-07T14:31:07.274Z,21.20
2022-10-07T14:34:17.708Z,21.00
2022-10-07T14:37:20.188Z,21.00
2022-10-07T14:39:53.072Z,21.00
2022-10-07T14:42:27.681Z,21.00
2022-10-07T14:44:57.460Z,20.90
2022-10-07T14:47:27.451Z,20.80
2022-10-07T14:52:48.918Z,20.50
2022-10-07T14:57:48.941Z,20.10
2022-10-07T15:00:20.952Z,19.70
2022-10-07T15:02:50.488Z,19.10
2022-10-07T15:05:18.645Z,18.60
2022-10-07T15:07:46.469Z,18.00
2022-10-07T15:10:21.195Z,17.60
2022-10-07T15:12:49.073Z,17.20
2022-10-07T15:15:16.724Z,17.10
2022-10-07T15:17:44.193Z,16.80
2022-10-07T15:20:15.242Z,16.60
2022-10-07T15:22:43.506Z,16.30
2022-10-07T15:25:12.723Z,16.10
2022-10-07T15:27:39.832Z,16.00
2022-10-07T15:30:07.871Z,15.80
2022-10-07T15:32:35.098Z,15.60
2022-10-07T15:35:02.570Z,15.70
2022-10-07T15:37:29.818Z,15.40
2022-10-07T15:39:57.104Z,15.50
2022-10-07T15:42:25.773Z,15.20
2022-10-07T15:45:06.112Z,14.90
2022-10-07T15:47:38.418Z,14.90
2022-10-07T15:50:07.292Z,14.80
2022-10-07T15:52:34.662Z,14.90
2022-10-07T15:55:07.255Z,14.70
2022-10-07T15:57:35.239Z,14.80
2022-10-07T16:00:03.831Z,14.60
2022-10-07T16:02:31.036Z,14.40
2022-10-07T16:04:58.346Z,14.20
2022-10-07T16:07:25.584Z,14.00
2022-10-07T16:09:53.881Z,14.00
2022-10-07T16:12:21.016Z,13.80
2022-10-07T16:14:48.181Z,13.70
2022-10-07T16:17:15.403Z,13.60
2022-10-07T16:19:42.667Z,13.50
2022-10-07T16:22:09.985Z,13.50
2022-10-07T16:24:37.156Z,13.40
2022-10-07T16:27:04.285Z,13.30
2022-10-07T16:29:31.424Z,13.20
2022-10-07T16:31:59.429Z,13.10
2022-10-07T16:34:28.287Z,12.90
2022-10-07T16:36:57.318Z,12.80
2022-10-07T16:39:25.449Z,12.80
2022-10-07T16:44:21.506Z,12.70
2022-10-07T16:46:49.159Z,12.60
2022-10-07T16:49:18.426Z,12.50
2022-10-07T16:51:46.112Z,12.40
2022-10-07T16:54:17.625Z,12.30
2022-10-07T16:56:48.594Z,12.30
2022-10-07T16:59:25.916Z,12.10
2022-10-07T17:01:57.374Z,12.10
2022-10-07T17:04:25.310Z,12.10
2022-10-07T17:06:53.780Z,11.90
2022-10-07T17:09:21.634Z,11.90
2022-10-07T17:11:49.042Z,11.80
2022-10-07T17:14:20.106Z,11.70
2022-10-07T17:16:56.753Z,11.70
2022-10-07T17:19:28.082Z,11.60
2022-10-07T17:21:57.588Z,11.50
2022-10-07T17:24:25.193Z,11.50
2022-10-07T17:29:22.536Z,11.40
2022-10-07T17:31:49.932Z,11.30
2022-10-07T17:34:20.272Z,11.30
2022-10-07T17:36:49.056Z,11.20
2022-10-07T17:39:17.601Z,11.10
2022-10-07T17:41:45.039Z,11.00
2022-10-07T17:44:13.175Z,11.00
2022-10-07T17:46:41.501Z,10.90
2022-10-07T17:49:11.908Z,10.80
2022-10-07T17:51:39.147Z,10.80
2022-10-07T17:54:06.769Z,10.80
2022-10-07T17:56:34.842Z,10.70
2022-10-07T17:59:03.183Z,10.70
2022-10-07T18:01:33.868Z,10.60
2022-10-07T18:04:07.411Z,10.60
2022-10-07T18:06:38.323Z,10.60
2022-10-07T18:09:08.107Z,10.60
2022-10-07T18:11:35.945Z,10.50
2022-10-07T18:14:03.168Z,10.60
2022-10-07T18:16:35.546Z,10.40
2022-10-07T18:19:03.594Z,10.40
2022-10-07T18:21:32.117Z,10.30
2022-10-07T18:23:59.305Z,10.30
2022-10-07T18:26:26.590Z,10.20
2022-10-07T18:28:54.032Z,10.20
2022-10-07T18:31:21.261Z,10.10
2022-10-07T18:33:48.432Z,10.20
2022-10-07T18:36:17.980Z,10.10
2022-10-07T18:38:46.210Z,10.20
2022-10-07T18:41:16.470Z,10.10
2022-10-07T18:43:45.840Z,10.00
2022-10-07T18:46:19.011Z,10.00
2022-10-07T18:48:47.477Z,10.00
2022-10-07T18:51:15.641Z,9.90
2022-10-07T18:53:45.786Z,9.90
2022-10-07T18:56:18.486Z,9.90
2022-10-07T18:58:49.655Z,9.90
2022-10-07T19:01:23.710Z,10.00
2022-10-07T19:04:00.868Z,10.10
2022-10-07T19:06:32.007Z,10.00
2022-10-07T19:09:03.800Z,9.90
2022-10-07T19:11:31.288Z,9.90
2022-10-07T19:14:00.117Z,9.90
2022-10-07T19:16:31.757Z,9.90
2022-10-07T19:18:59.404Z,9.80
2022-10-07T19:21:27.318Z,9.90
2022-10-07T19:23:56.935Z,9.80
2022-10-07T19:26:27.471Z,9.70
2022-10-07T19:28:55.804Z,9.60
2022-10-07T19:31:36.412Z,9.50
2022-10-07T19:34:11.228Z,9.40
2022-10-07T19:36:41.744Z,9.40
2022-10-07T19:39:10.289Z,9.30
2022-10-07T19:41:49.661Z,9.20
2022-10-07T19:44:17.107Z,9.20
2022-10-07T19:46:45.724Z,9.20
2022-10-07T19:49:13.004Z,9.30
2022-10-07T19:51:40.328Z,9.10
2022-10-07T19:54:07.880Z,9.10
2022-10-07T19:56:35.997Z,9.00
2022-10-07T19:59:12.421Z,9.00
2022-10-07T20:01:44.900Z,9.00
2022-10-07T20:04:17.943Z,8.90
2022-10-07T20:06:45.313Z,8.90
2022-10-07T20:09:16.293Z,8.90
2022-10-07T20:11:43.822Z,8.90
2022-10-07T20:14:11.259Z,8.70
2022-10-07T20:16:38.828Z,8.80
2022-10-07T20:19:12.715Z,8.80
2022-10-07T20:21:40.090Z,8.70
2022-10-07T20:24:08.937Z,8.70
2022-10-07T20:26:38.689Z,8.70
2022-10-07T20:31:38.648Z,8.60
2022-10-07T20:34:08.567Z,8.50
2022-10-07T20:36:38.788Z,8.50
2022-10-07T20:39:15.689Z,8.60
2022-10-07T20:41:43.104Z,8.50
2022-10-07T20:44:12.921Z,8.40
2022-10-07T20:46:40.479Z,8.40
2022-10-07T20:49:13.166Z,8.40
2022-10-07T20:51:40.383Z,8.30
2022-10-07T20:54:07.629Z,8.30
2022-10-07T20:56:34.768Z,8.20
2022-10-07T20:59:01.953Z,8.20
2022-10-07T21:01:29.229Z,8.10
2022-10-07T21:03:56.555Z,8.20
2022-10-07T21:06:23.748Z,8.10
2022-10-07T21:08:54.619Z,8.20
2022-10-07T21:11:22.030Z,8.10
2022-10-07T21:13:49.349Z,8.00
2022-10-07T21:16:16.505Z,8.00
2022-10-07T21:18:44.092Z,8.00
2022-10-07T21:21:11.396Z,8.00
2022-10-07T21:23:38.645Z,8.10
2022-10-07T21:26:06.330Z,8.10
2022-10-07T21:28:35.507Z,8.10
2022-10-07T21:31:05.799Z,8.00
2022-10-07T21:33:33.072Z,8.00
2022-10-07T21:36:11.149Z,8.00
2022-10-07T21:38:38.826Z,7.90
2022-10-07T21:41:29.394Z,7.90
2022-10-07T21:43:57.615Z,7.80
2022-10-07T21:46:27.580Z,7.90
2022-10-07T21:48:56.939Z,7.80
2022-10-07T21:51:26.465Z,7.80
2022-10-07T21:53:56.223Z,7.80
2022-10-07T21:56:23.791Z,7.70
2022-10-07T21:58:51.024Z,7.70
2022-10-07T22:01:21.521Z,7.60
2022-10-07T22:04:01.053Z,7.60
2022-10-07T22:06:30.991Z,7.50
2022-10-07T22:08:58.187Z,7.60
2022-10-07T22:11:25.404Z,7.60
2022-10-07T22:13:52.560Z,7.50
2022-10-07T22:16:20.680Z,7.50
2022-10-07T22:18:52.377Z,7.60
2022-10-07T22:21:29.453Z,7.60
2022-10-07T22:23:59.833Z,7.50
2022-10-07T22:26:33.744Z,7.50
2022-10-07T22:29:01.316Z,7.40
2022-10-07T22:31:28.458Z,7.50
2022-10-07T22:33:58.675Z,7.40
2022-10-07T22:36:27.466Z,7.30
2022-10-07T22:38:56.080Z,7.30
2022-10-07T22:41:24.513Z,7.20
2022-10-07T22:43:53.041Z,7.20
2022-10-07T22:46:27.257Z,7.30
2022-10-07T22:48:56.939Z,7.30
2022-10-07T22:51:25.867Z,7.30
2022-10-07T22:53:55.363Z,7.20
2022-10-07T22:56:24.880Z,7.20
2022-10-07T22:58:58.379Z,7.20
2022-10-07T23:01:27.760Z,7.20
2022-10-07T23:03:55.674Z,7.20
2022-10-07T23:06:23.025Z,7.20
2022-10-07T23:08:50.433Z,7.10
2022-10-07T23:11:25.148Z,7.10
2022-10-07T23:13:53.443Z,7.20
2022-10-07T23:16:27.283Z,7.10
2022-10-07T23:18:54.802Z,7.00
2022-10-07T23:21:26.034Z,6.90
2022-10-07T23:23:56.893Z,6.80
2022-10-07T23:28:57.056Z,6.90
2022-10-07T23:33:55.886Z,6.80
2022-10-07T23:36:24.703Z,6.80
2022-10-07T23:38:53.196Z,6.80
2022-10-07T23:41:26.886Z,6.70
2022-10-07T23:44:00.573Z,6.70
2022-10-07T23:46:30.161Z,6.60
2022-10-07T23:48:57.438Z,6.70
2022-10-07T23:51:27.416Z,6.70
2022-10-07T23:54:00.007Z,6.70
2022-10-07T23:56:27.658Z,6.60
2022-10-07T23:58:54.871Z,6.60
